Time;durP1;ratioP1;P1;durP2;ratioP2;P2;SDS_P1;SDS_P2;PMS_P1;PMS_P2;Temp;Humidity;BMP_temperature;BMP_pressure;BME280_temperature;BME280_humidity;BME280_pressure;Samples;Min_cycle;Max_cycle;Signal;HPM_P1;HPM_P2
2022/01/17 00:00:12;;;;;;;61.72;37.90;;;;;;;4.19;61.42;102233.69;5027154;28;20677;-59
2022/01/17 00:02:44;;;;;;;63.30;37.70;;;;;;;4.19;61.46;102224.19;5031881;28;20042;-59
2022/01/17 00:05:11;;;;;;;59.55;36.90;;;;;;;4.27;61.21;102224.13;5031605;28;20509;-59
2022/01/17 00:07:38;;;;;;;60.45;37.72;;;;;;;4.20;61.49;102225.91;5031732;28;20049;-60
2022/01/17 00:10:06;;;;;;;60.28;36.30;;;;;;;4.19;61.42;102229.38;5031545;28;20099;-59
2022/01/17 00:12:38;;;;;;;60.28;36.72;;;;;;;4.17;61.54;102243.25;5031193;28;20050;-61
2022/01/17 00:15:14;;;;;;;54.20;35.40;;;;;;;4.15;61.46;102252.78;5031649;28;20049;-59
2022/01/17 00:17:43;;;;;;;60.47;38.08;;;;;;;4.13;61.46;102242.41;5031437;28;20099;-60
2022/01/17 00:20:14;;;;;;;56.00;37.17;;;;;;;4.11;61.36;102241.53;5031611;28;20045;-59
2022/01/17 00:22:41;;;;;;;57.15;36.83;;;;;;;4.11;61.40;102256.25;5031520;28;20049;-60
2022/01/17 00:25:07;;;;;;;57.20;37.15;;;;;;;4.09;61.59;102248.50;5031461;28;20068;-64
2022/01/17 00:27:35;;;;;;;57.70;37.00;;;;;;;4.02;61.94;102250.22;5031476;28;20049;-59
2022/01/17 00:30:03;;;;;;;57.72;34.45;;;;;;;3.97;61.69;102261.53;5031713;28;20176;-59
2022/01/17 00:32:31;;;;;;;52.55;34.05;;;;;;;3.91;61.94;102265.00;5031461;28;20059;-60
2022/01/17 00:34:57;;;;;;;61.22;34.67;;;;;;;3.91;61.39;102262.41;5030813;28;20045;-60
2022/01/17 00:37:24;;;;;;;54.17;34.50;;;;;;;3.86;61.45;102254.66;5031247;28;20052;-59
2022/01/17 00:39:51;;;;;;;55.03;35.75;;;;;;;3.91;61.20;102257.22;5031466;28;20049;-60
2022/01/17 00:42:18;;;;;;;55.15;35.25;;;;;;;3.92;61.19;102248.56;5032445;28;20398;-62
2022/01/17 00:44:47;;;;;;;55.58;35.60;;;;;;;3.92;61.19;102248.56;5034827;28;20046;-59
2022/01/17 00:47:15;;;;;;;59.17;37.75;;;;;;;3.96;61.40;102241.63;5034691;28;20494;-59
2022/01/17 00:49:42;;;;;;;54.30;35.78;;;;;;;3.95;61.41;102245.06;5033922;28;20045;-59
2022/01/17 00:52:08;;;;;;;58.75;36.13;;;;;;;3.93;61.45;102253.72;5034625;28;20506;-59
2022/01/17 00:54:35;;;;;;;58.70;37.00;;;;;;;3.91;61.77;102254.59;5034877;28;20383;-59
2022/01/17 00:57:02;;;;;;;65.18;36.97;;;;;;;3.93;61.57;102245.94;5034363;28;20042;-59
2022/01/17 00:59:30;;;;;;;58.65;37.60;;;;;;;3.98;61.65;102253.72;5034688;28;20056;-59
2022/01/17 01:01:57;;;;;;;59.10;36.08;;;;;;;3.95;61.73;102258.94;5034585;28;20057;-61
2022/01/17 01:04:23;;;;;;;56.40;35.85;;;;;;;3.93;61.66;102258.06;5034569;28;20207;-61
2022/01/17 01:06:50;;;;;;;55.88;35.25;;;;;;;3.87;61.96;102247.72;5033577;28;20107;-60
2022/01/17 01:09:17;;;;;;;54.67;33.92;;;;;;;3.89;61.82;102253.78;5033138;28;20045;-60
2022/01/17 01:11:43;;;;;;;54.95;34.45;;;;;;;3.84;61.91;102265.91;5034091;28;20056;-60
2022/01/17 01:14:10;;;;;;;57.03;35.90;;;;;;;3.74;61.93;102271.13;5034277;28;20047;-60
2022/01/17 01:16:37;;;;;;;62.08;36.35;;;;;;;3.73;61.87;102269.41;5034372;28;20108;-60
2022/01/17 01:29:49;;;;;;;53.45;35.65;;;;;;;3.55;61.65;102275.50;5034257;28;20053;-60
2022/01/17 01:32:20;;;;;;;56.30;35.92;;;;;;;3.51;61.81;102280.72;5033836;28;20049;-61
2022/01/17 01:34:52;;;;;;;60.28;36.40;;;;;;;3.54;61.56;102298.88;5034185;28;20049;-59
2022/01/17 01:37:18;;;;;;;60.13;37.17;;;;;;;3.51;61.55;102293.69;5033869;28;20049;-60
2022/01/17 01:39:49;;;;;;;53.67;35.13;;;;;;;3.55;61.33;102277.25;5032731;28;20042;-59
2022/01/17 01:42:18;;;;;;;57.45;35.03;;;;;;;3.55;61.51;102279.84;5026006;28;20072;-60
2022/01/17 01:44:50;;;;;;;56.08;35.70;;;;;;;3.50;61.61;102272.06;5033807;28;20048;-59
2022/01/17 01:47:20;;;;;;;56.78;35.80;;;;;;;3.38;61.81;102275.56;5033653;28;20045;-59
2022/01/17 01:49:47;;;;;;;57.58;35.15;;;;;;;3.38;61.54;102298.06;5033543;28;20049;-59
2022/01/17 01:52:14;;;;;;;58.40;36.72;;;;;;;3.34;61.53;102294.59;5033719;28;20041;-59
2022/01/17 01:54:41;;;;;;;58.22;37.03;;;;;;;3.27;61.46;102292.88;5033717;28;20060;-59
2022/01/17 01:57:08;;;;;;;61.17;36.72;;;;;;;3.31;61.43;102296.31;5032254;28;20083;-59
2022/01/17 01:59:37;;;;;;;61.78;37.60;;;;;;;3.33;61.22;102295.44;5033211;28;20045;-60
2022/01/17 02:02:05;;;;;;;57.83;36.90;;;;;;;3.37;61.33;102298.91;5033352;28;20128;-59
2022/01/17 02:04:32;;;;;;;63.47;37.20;;;;;;;3.40;61.26;102292.00;5033373;28;20091;-59
2022/01/17 02:06:59;;;;;;;59.58;37.17;;;;;;;3.40;61.16;102291.09;5033180;28;20072;-60
2022/01/17 02:09:26;;;;;;;62.85;37.17;;;;;;;3.37;61.48;102289.38;5033347;28;20107;-59
2022/01/17 02:11:52;;;;;;;59.95;37.05;;;;;;;3.39;61.64;102300.63;5032948;28;20404;-59
2022/01/17 02:14:19;;;;;;;65.18;38.10;;;;;;;3.38;61.67;102298.91;5032434;28;20049;-59
2022/01/17 02:16:49;;;;;;;59.40;36.78;;;;;;;3.45;61.63;102296.31;5033327;28;20049;-60
2022/01/17 02:19:20;;;;;;;57.22;35.10;;;;;;;3.48;61.82;102298.88;5032873;28;20045;-60
2022/01/17 02:21:49;;;;;;;56.28;34.35;;;;;;;3.48;61.71;102298.88;5033443;28;20049;-60
2022/01/17 02:24:21;;;;;;;60.17;35.53;;;;;;;3.46;61.89;102303.22;5032857;28;20045;-59
2022/01/17 02:26:51;;;;;;;60.25;34.78;;;;;;;3.46;61.94;102291.09;5032958;28;20089;-60
2022/01/17 02:29:18;;;;;;;60.92;37.70;;;;;;;3.46;62.16;102287.66;5031742;28;20084;-60
2022/01/17 02:31:46;;;;;;;57.67;34.25;;;;;;;3.46;62.03;102279.88;5032988;28;20045;-60
2022/01/17 02:34:16;;;;;;;56.80;34.75;;;;;;;3.43;62.28;102286.78;5032666;28;20046;-59
2022/01/17 02:36:44;;;;;;;60.00;36.08;;;;;;;3.33;62.34;102272.09;5033054;28;20049;-60
2022/01/17 02:39:13;;;;;;;59.50;35.67;;;;;;;3.29;62.07;102283.34;5032651;28;20050;-65
2022/01/17 02:41:43;;;;;;;58.92;34.45;;;;;;;3.25;61.99;102289.41;5032581;28;20046;-60
2022/01/17 02:44:10;;;;;;;61.35;35.50;;;;;;;3.15;61.78;102279.91;5031596;28;20435;-60
2022/01/17 02:46:37;;;;;;;57.72;35.63;;;;;;;3.09;61.75;102273.84;5032599;28;20041;-64
2022/01/17 02:49:06;;;;;;;63.08;36.17;;;;;;;3.05;61.53;102274.72;5032611;28;20119;-60
2022/01/17 02:51:33;;;;;;;57.00;33.83;;;;;;;2.99;61.69;102277.31;5032729;28;20041;-60
2022/01/17 02:54:00;;;;;;;60.55;37.63;;;;;;;2.89;61.41;102281.63;5032253;28;20045;-59
2022/01/17 02:56:27;;;;;;;59.40;34.90;;;;;;;2.98;61.35;102267.81;5032374;28;20482;-59
2022/01/17 02:58:55;;;;;;;59.33;35.55;;;;;;;3.04;61.06;102265.22;5032337;28;20042;-59
2022/01/17 03:01:27;;;;;;;55.25;33.35;;;;;;;3.01;61.20;102267.81;5031409;28;20486;-59
2022/01/17 03:03:55;;;;;;;55.97;33.45;;;;;;;2.90;61.74;102290.28;5032108;28;20056;-59
2022/01/17 03:06:22;;;;;;;63.45;35.15;;;;;;;2.93;61.37;102298.94;5031011;28;20100;-58
2022/01/17 03:08:50;;;;;;;59.40;34.15;;;;;;;2.97;61.39;102310.19;5031033;28;20041;-59
2022/01/17 03:11:24;;;;;;;58.50;34.85;;;;;;;2.92;61.14;102315.34;5031709;28;20061;-59
2022/01/17 03:13:51;;;;;;;60.40;34.33;;;;;;;2.98;61.52;102324.84;5032124;28;20076;-59
2022/01/17 03:16:28;;;;;;;56.30;33.28;;;;;;;2.93;61.36;102336.94;5031342;28;20048;-59
2022/01/17 03:18:55;;;;;;;54.28;32.80;;;;;;;2.88;61.56;102317.94;5032164;28;20045;-59
2022/01/17 03:21:21;;;;;;;57.80;33.95;;;;;;;2.89;61.45;102297.19;5032248;28;20041;-59
2022/01/17 03:23:49;;;;;;;60.28;35.13;;;;;;;2.92;61.25;102285.94;5032164;28;20045;-60
2022/01/17 03:26:16;;;;;;;52.50;31.98;;;;;;;2.90;61.33;102293.72;5032211;28;20555;-59
2022/01/17 03:28:43;;;;;;;53.80;33.35;;;;;;;2.94;61.30;102282.50;5032159;28;20057;-59
2022/01/17 03:31:10;;;;;;;53.58;33.30;;;;;;;2.96;61.14;102279.91;5031011;28;20048;-60
2022/01/17 03:33:39;;;;;;;60.92;33.70;;;;;;;3.03;61.28;102275.59;5032115;28;20045;-59
2022/01/17 03:36:05;;;;;;;50.97;32.72;;;;;;;3.02;61.38;102284.22;5031816;28;20045;-59
2022/01/17 03:38:33;;;;;;;56.42;33.15;;;;;;;2.99;61.38;102292.03;5032141;28;20045;-59
2022/01/17 03:41:02;;;;;;;57.45;31.92;;;;;;;2.97;61.57;102289.44;5031448;28;20069;-59
2022/01/17 03:43:29;;;;;;;52.97;32.72;;;;;;;2.97;61.61;102289.44;5032009;28;20064;-60
2022/01/17 03:45:57;;;;;;;57.42;32.80;;;;;;;2.89;61.88;102284.22;5032151;28;20081;-62
2022/01/17 03:48:26;;;;;;;53.55;32.97;;;;;;;2.85;61.83;102297.19;5031894;28;20053;-60
2022/01/17 03:50:55;;;;;;;57.28;33.70;;;;;;;2.89;61.78;102304.97;5030961;28;20148;-59
2022/01/17 03:53:23;;;;;;;56.33;32.42;;;;;;;2.91;61.68;102302.41;5031674;28;20053;-59
2022/01/17 03:55:50;;;;;;;52.35;31.90;;;;;;;2.88;61.79;102310.16;5031634;28;20498;-59
2022/01/17 03:58:17;;;;;;;55.30;31.73;;;;;;;2.81;62.01;102311.88;5031525;28;20046;-59
2022/01/17 04:00:47;;;;;;;53.72;33.58;;;;;;;2.78;61.75;102302.38;5031576;28;20049;-60
2022/01/17 04:03:14;;;;;;;54.08;31.73;;;;;;;2.73;61.75;102298.91;5028293;28;20045;-59
2022/01/17 04:05:41;;;;;;;56.28;32.15;;;;;;;2.66;61.82;102304.09;5027452;28;20049;-59
2022/01/17 04:08:09;;;;;;;48.30;30.88;;;;;;;2.64;61.58;102314.47;5028429;28;20045;-61
2022/01/17 04:10:36;;;;;;;51.95;31.05;;;;;;;2.64;61.51;102314.47;5027603;28;20058;-59
2022/01/17 04:13:04;;;;;;;50.65;30.23;;;;;;;2.71;61.19;102323.09;5028268;28;20104;-59
2022/01/17 04:15:33;;;;;;;54.20;31.20;;;;;;;2.72;61.16;102323.09;5028630;28;20422;-59
2022/01/17 04:18:01;;;;;;;51.08;30.75;;;;;;;2.72;61.18;102307.56;5032047;28;20056;-59
2022/01/17 04:20:29;;;;;;;51.85;30.67;;;;;;;2.66;61.07;102304.09;5031326;28;20560;-59
2022/01/17 04:22:58;;;;;;;48.88;30.27;;;;;;;2.64;61.08;102309.28;5032146;28;20041;-59
2022/01/17 04:25:29;;;;;;;56.97;31.85;;;;;;;2.62;61.09;102311.00;5032223;28;20071;-59
2022/01/17 04:28:00;;;;;;;57.13;29.77;;;;;;;2.60;60.89;102316.19;5032037;28;20514;-59
2022/01/17 04:30:28;;;;;;;53.42;31.35;;;;;;;2.61;60.97;102324.81;5032011;28;20532;-59
2022/01/17 04:32:55;;;;;;;53.95;31.58;;;;;;;2.65;60.94;102321.34;5031886;28;20100;-60
2022/01/17 04:35:24;;;;;;;50.92;31.70;;;;;;;2.62;61.06;102329.13;5031836;28;20107;-60
2022/01/17 04:38:06;;;;;;;52.10;29.77;;;;;;;2.55;60.96;102319.59;5030711;28;20053;-59
2022/01/17 04:40:38;;;;;;;52.10;30.27;;;;;;;2.55;61.00;102324.78;5031401;28;20045;-59
2022/01/17 04:45:46;;;;;;;53.70;29.88;;;;;;;2.55;60.88;102323.06;5031890;28;20045;-60
2022/01/17 04:48:13;;;;;;;59.08;32.05;;;;;;;2.56;60.83;102311.81;5031420;28;20053;-67
2022/01/17 04:50:41;;;;;;;52.30;30.55;;;;;;;2.54;60.94;102321.34;5031648;28;20045;-60
2022/01/17 04:53:08;;;;;;;53.20;30.10;;;;;;;2.53;60.87;102317.00;5031396;28;20053;-59
2022/01/17 04:55:36;;;;;;;49.72;28.92;;;;;;;2.54;61.04;102310.97;5030652;28;20107;-59
2022/01/17 04:58:04;;;;;;;52.33;30.35;;;;;;;2.52;60.93;102304.91;5031475;28;20077;-62
2022/01/17 05:00:30;;;;;;;61.55;32.83;;;;;;;2.45;61.20;102306.63;5031518;28;20425;-59
2022/01/17 05:02:57;;;;;;;50.08;29.35;;;;;;;2.45;60.91;102296.28;5031460;28;20045;-59
2022/01/17 05:05:24;;;;;;;50.80;28.85;;;;;;;2.48;60.92;102315.28;5031187;28;20088;-59
2022/01/17 05:07:52;;;;;;;50.95;29.58;;;;;;;2.43;60.89;102321.31;5031407;28;20056;-60
2022/01/17 05:10:21;;;;;;;50.08;30.73;;;;;;;2.48;60.77;102331.69;5029505;28;20052;-60
2022/01/17 05:12:49;;;;;;;50.83;29.52;;;;;;;2.44;60.84;102343.75;5031417;28;20072;-59
2022/01/17 05:15:27;;;;;;;51.45;29.45;;;;;;;2.53;61.07;102347.25;5031106;28;20095;-59
2022/01/17 05:20:42;;;;;;;45.13;26.42;;;;;;;2.59;61.08;102337.75;5013223;28;20045;-61
2022/01/17 05:23:09;;;;;;;49.35;27.92;;;;;;;2.48;61.18;102339.47;5031189;28;20099;-57
2022/01/17 05:25:37;;;;;;;49.55;27.25;;;;;;;2.38;61.42;102330.78;5030889;28;20123;-56
2022/01/17 05:28:03;;;;;;;49.08;28.30;;;;;;;2.33;61.41;102335.09;5029186;28;20046;-59
2022/01/17 05:30:30;;;;;;;48.13;27.98;;;;;;;2.36;60.98;102342.88;5030970;28;20111;-59
2022/01/17 05:33:00;;;;;;;52.88;28.17;;;;;;;2.40;60.96;102329.06;5030880;28;20072;-59
2022/01/17 05:35:27;;;;;;;44.42;27.05;;;;;;;2.38;60.79;102323.00;5030912;28;20054;-60
2022/01/17 05:37:53;;;;;;;47.38;27.73;;;;;;;2.31;60.90;102313.50;5030677;28;20080;-59
2022/01/17 05:40:20;;;;;;;46.10;27.35;;;;;;;2.32;60.92;102317.81;5028891;28;20482;-60
2022/01/17 05:42:47;;;;;;;51.40;29.02;;;;;;;2.30;60.95;102324.72;5017632;28;20061;-59
2022/01/17 05:45:16;;;;;;;48.42;26.65;;;;;;;2.34;60.85;102330.78;5030712;28;20047;-59
2022/01/17 05:47:44;;;;;;;45.92;27.77;;;;;;;2.37;60.80;102336.81;5030268;28;20045;-58
2022/01/17 05:50:11;;;;;;;52.58;28.67;;;;;;;2.29;61.04;102333.34;5030284;28;20041;-58
2022/01/17 05:52:38;;;;;;;47.80;28.08;;;;;;;2.29;61.01;102335.94;5030394;28;20380;-61
2022/01/17 05:55:08;;;;;;;55.47;28.45;;;;;;;2.26;60.84;102349.75;5030181;28;20096;-58
2022/01/17 05:57:35;;;;;;;47.17;27.55;;;;;;;2.24;61.04;102335.06;5030093;28;20049;-58
2022/01/17 06:00:08;;;;;;;46.70;26.38;;;;;;;2.18;60.94;102341.06;5029112;28;20136;-59
2022/01/17 06:02:35;;;;;;;44.30;26.83;;;;;;;2.10;61.17;102346.22;5030111;28;20436;-59
2022/01/17 06:05:02;;;;;;;44.70;27.75;;;;;;;2.23;60.47;102356.63;5029783;28;20045;-58
2022/01/17 06:07:38;;;;;;;46.35;27.85;;;;;;;2.24;60.57;102350.59;5026858;28;20063;-71
2022/01/17 06:10:09;;;;;;;50.28;28.30;;;;;;;2.32;60.35;102343.72;5023860;28;20049;-58
2022/01/17 06:12:36;;;;;;;51.10;29.20;;;;;;;2.34;60.29;102342.00;5029696;28;20057;-59
2022/01/17 06:15:04;;;;;;;51.75;29.23;;;;;;;2.38;60.50;102354.09;5029012;28;20045;-59
2022/01/17 06:17:30;;;;;;;49.80;29.10;;;;;;;2.46;60.49;102351.53;5029864;28;20041;-59
2022/01/17 06:19:57;;;;;;;63.95;33.03;;;;;;;2.53;60.56;102353.28;5029888;28;20111;-58
2022/01/17 06:22:24;;;;;;;51.53;29.35;;;;;;;2.60;60.72;102359.34;5029915;28;20041;-58
2022/01/17 06:24:51;;;;;;;45.63;28.25;;;;;;;2.65;61.03;102361.97;5029634;28;20520;-59
2022/01/17 06:27:19;;;;;;;46.55;27.63;;;;;;;2.64;61.20;102365.41;5029615;28;20061;-59
2022/01/17 06:29:45;;;;;;;44.67;27.45;;;;;;;2.64;61.47;102368.00;5029497;28;20049;-59
2022/01/17 06:32:12;;;;;;;46.70;25.75;;;;;;;2.67;61.54;102363.69;5028726;28;20057;-59
2022/01/17 06:34:55;;;;;;;47.22;26.38;;;;;;;2.64;61.68;102357.63;5029372;28;20095;-60
2022/01/17 06:37:22;;;;;;;53.08;27.83;;;;;;;2.59;62.03;102352.44;5029304;28;20068;-59
2022/01/17 06:39:51;;;;;;;47.95;27.27;;;;;;;2.57;62.30;102354.19;5028325;28;20053;-58
2022/01/17 06:42:18;;;;;;;46.72;27.38;;;;;;;2.57;62.21;102346.41;5028931;28;20053;-60
2022/01/17 06:44:45;;;;;;;48.33;26.77;;;;;;;2.52;62.16;102335.16;5028963;28;20049;-59
2022/01/17 06:47:11;;;;;;;46.80;26.92;;;;;;;2.49;62.37;102325.66;5029459;28;20045;-58
2022/01/17 06:49:38;;;;;;;54.00;27.40;;;;;;;2.78;62.22;102323.13;5028133;28;20053;-59
2022/01/17 06:52:05;;;;;;;50.42;28.15;;;;;;;2.53;62.07;102339.50;5029047;28;20111;-59
2022/01/17 06:54:32;;;;;;;51.60;29.65;;;;;;;2.41;62.19;102335.13;5029345;28;20049;-61
2022/01/17 06:56:58;;;;;;;49.83;29.60;;;;;;;2.35;61.95;102335.97;5029239;28;20069;-60
2022/01/17 06:59:25;;;;;;;48.15;30.45;;;;;;;2.36;62.04;102357.56;5028993;28;20041;-59
2022/01/17 07:01:52;;;;;;;52.72;30.05;;;;;;;2.28;62.04;102373.06;5028786;28;20045;-59
2022/01/17 07:04:19;;;;;;;50.78;28.17;;;;;;;2.27;61.98;102368.75;5029158;28;20054;-59
2022/01/17 07:06:45;;;;;;;54.33;30.17;;;;;;;2.29;61.76;102373.06;5028226;28;20065;-60
2022/01/17 07:09:16;;;;;;;121.43;54.80;;;;;;;2.39;61.56;102383.50;5028290;28;20050;-59
2022/01/17 07:11:43;;;;;;;389.08;149.38;;;;;;;2.32;61.64;102379.13;5028695;28;20494;-59
2022/01/17 07:14:11;;;;;;;326.95;132.13;;;;;;;2.29;61.59;102372.22;5028098;28;20440;-59
2022/01/17 07:16:40;;;;;;;277.70;114.40;;;;;;;2.25;61.66;102378.25;5028848;28;20398;-59
2022/01/17 07:19:07;;;;;;;264.05;105.65;;;;;;;2.34;61.33;102377.41;5028654;28;20045;-58
2022/01/17 07:21:35;;;;;;;253.10;102.95;;;;;;;2.36;61.39;102375.69;5028597;28;20049;-58
2022/01/17 07:24:02;;;;;;;169.05;74.97;;;;;;;2.40;61.18;102383.47;5028666;28;20441;-58
2022/01/17 07:26:28;;;;;;;130.27;58.20;;;;;;;2.42;61.14;102379.16;5028790;28;20045;-59
2022/01/17 07:28:55;;;;;;;82.32;40.53;;;;;;;2.50;60.83;102387.00;5024106;28;20481;-58
2022/01/17 07:31:22;;;;;;;81.20;37.47;;;;;;;2.61;60.59;102380.09;5027344;28;20049;-60
2022/01/17 07:33:48;;;;;;;71.55;38.05;;;;;;;2.72;60.19;102395.69;5028520;28;20483;-59
2022/01/17 07:36:27;;;;;;;109.13;50.15;;;;;;;2.83;59.99;102410.41;5025465;28;20081;-59
2022/01/17 07:38:53;;;;;;;107.35;48.78;;;;;;;2.77;60.13;102422.47;5028907;28;20069;-58
2022/01/17 07:41:22;;;;;;;89.07;41.95;;;;;;;2.88;59.79;102432.91;5028055;28;20103;-61
2022/01/17 07:43:58;;;;;;;66.20;33.10;;;;;;;2.73;59.93;102449.25;5028939;28;20049;-60
2022/01/17 07:46:33;;;;;;;57.13;33.50;;;;;;;2.85;59.65;102445.84;5028916;28;20049;-58
2022/01/17 07:51:30;;;;;;;54.72;30.52;;;;;;;2.93;59.54;102485.63;5030150;28;20077;-58
2022/01/17 07:53:57;;;;;;;51.13;29.35;;;;;;;2.99;59.51;102471.81;5033017;28;20045;-58
2022/01/17 07:56:24;;;;;;;50.83;29.15;;;;;;;3.03;59.31;102447.59;5032469;28;20053;-58
2022/01/17 07:58:51;;;;;;;53.10;29.58;;;;;;;3.08;59.49;102427.72;5032576;28;20048;-58
2022/01/17 08:01:19;;;;;;;53.08;28.95;;;;;;;3.10;59.45;102423.41;5032349;28;20041;-58
2022/01/17 08:03:46;;;;;;;49.47;28.75;;;;;;;3.14;59.45;102429.50;5032586;28;20050;-58
2022/01/17 08:06:13;;;;;;;46.03;28.23;;;;;;;3.19;59.54;102434.69;5032270;28;20052;-59
2022/01/17 08:08:40;;;;;;;52.92;28.98;;;;;;;3.18;59.68;102436.41;5032651;28;20045;-59
2022/01/17 08:11:06;;;;;;;96.53;49.83;;;;;;;3.34;59.25;102439.00;5031939;28;20107;-59
2022/01/17 08:13:33;;;;;;;153.07;70.70;;;;;;;3.44;59.23;102443.34;5032329;28;20045;-59
2022/01/17 08:16:02;;;;;;;146.38;74.50;;;;;;;3.55;59.17;102430.38;5031931;28;20045;-59
2022/01/17 08:18:30;;;;;;;111.15;54.20;;;;;;;3.65;59.40;102423.47;5032330;28;20077;-59
2022/01/17 08:20:56;;;;;;;74.22;41.28;;;;;;;3.87;58.88;102416.50;5032002;28;20056;-58
2022/01/17 08:23:23;;;;;;;131.43;66.05;;;;;;;4.08;58.57;102418.22;5031903;28;20045;-65
2022/01/17 08:25:51;;;;;;;143.10;67.20;;;;;;;4.29;58.15;102406.00;5031986;28;20045;-59
2022/01/17 08:28:21;;;;;;;203.25;91.47;;;;;;;4.54;58.02;102392.03;5031868;28;20056;-59
2022/01/17 08:30:49;;;;;;;83.60;49.30;;;;;;;4.92;57.26;102399.66;5032928;28;20563;-59
2022/01/17 08:33:35;;;;;;;59.50;34.60;;;;;;;5.28;56.44;102395.94;5031602;28;20128;-59
2022/01/17 08:36:03;;;;;;;62.05;34.83;;;;;;;5.55;55.93;102407.84;5031884;28;20042;-59
2022/01/17 08:38:43;;;;;;;48.65;27.92;;;;;;;5.88;55.46;102404.97;5031890;28;20049;-59
2022/01/17 08:41:10;;;;;;;53.13;29.25;;;;;;;6.13;55.23;102405.59;5031088;28;20041;-59
2022/01/17 08:43:37;;;;;;;45.25;27.05;;;;;;;6.36;54.84;102397.50;5031833;28;20052;-59
2022/01/17 08:46:06;;;;;;;46.50;28.08;;;;;;;6.59;54.42;102385.03;5031403;28;20045;-59
2022/01/17 08:48:33;;;;;;;61.45;35.28;;;;;;;6.80;54.05;102378.66;5031282;28;20489;-60
2022/01/17 08:51:00;;;;;;;52.03;31.25;;;;;;;7.00;53.91;102376.63;5031610;28;20054;-59
2022/01/17 08:53:26;;;;;;;49.92;30.50;;;;;;;7.21;53.71;102361.50;5031429;28;20464;-59
2022/01/17 08:55:53;;;;;;;65.57;35.55;;;;;;;7.42;53.57;102354.22;5031505;28;20059;-60
2022/01/17 08:58:20;;;;;;;68.65;36.70;;;;;;;7.62;53.61;102370.38;5031157;28;20080;-59
2022/01/17 09:00:46;;;;;;;55.22;33.30;;;;;;;7.83;53.21;102370.88;5031334;28;20145;-60
2022/01/17 09:03:21;;;;;;;76.10;45.92;;;;;;;8.00;53.19;102360.97;5030003;28;20049;-59
2022/01/17 09:05:49;;;;;;;58.35;33.75;;;;;;;8.17;52.98;102370.22;5031939;28;20103;-59
2022/01/17 09:08:18;;;;;;;57.50;33.50;;;;;;;8.38;52.78;102371.53;5031184;28;20046;-60
2022/01/17 09:10:46;;;;;;;51.22;31.02;;;;;;;8.46;52.81;102374.88;5030386;28;20115;-59
2022/01/17 09:13:12;;;;;;;52.08;32.58;;;;;;;8.45;53.23;102382.72;5030933;28;20458;-59
2022/01/17 09:15:39;;;;;;;39.90;26.23;;;;;;;8.69;53.16;102390.97;5031090;28;20047;-59
2022/01/17 09:18:06;;;;;;;43.15;26.33;;;;;;;8.90;52.90;102421.91;5030894;28;20123;-59
2022/01/17 09:20:35;;;;;;;42.42;26.42;;;;;;;8.95;53.09;102427.03;5030778;28;20053;-60
2022/01/17 09:23:05;;;;;;;49.92;31.65;;;;;;;8.97;53.16;102441.81;5030912;28;20045;-59
2022/01/17 09:25:33;;;;;;;44.50;27.25;;;;;;;8.87;53.87;102456.00;5030950;28;20049;-59
2022/01/17 09:28:00;;;;;;;40.10;26.55;;;;;;;8.73;54.34;102465.91;5030590;28;20042;-59
2022/01/17 09:30:27;;;;;;;55.08;33.35;;;;;;;8.62;54.66;102448.69;5030704;28;20049;-60
2022/01/17 09:32:53;;;;;;;58.22;36.42;;;;;;;8.58;54.96;102454.88;5030239;28;20128;-60
2022/01/17 09:35:20;;;;;;;40.08;25.85;;;;;;;8.62;55.26;102455.66;5030660;28;20046;-60
2022/01/17 09:37:49;;;;;;;47.58;29.02;;;;;;;8.72;55.25;102428.38;5030326;28;20048;-60
2022/01/17 09:40:19;;;;;;;47.75;29.20;;;;;;;9.16;54.31;102430.91;5029515;28;20054;-59
2022/01/17 09:42:46;;;;;;;60.47;34.92;;;;;;;9.56;53.46;102411.59;5030518;28;20064;-59
2022/01/17 09:45:16;;;;;;;76.20;40.58;;;;;;;9.99;52.56;102395.63;5030448;28;20556;-59
2022/01/17 09:47:44;;;;;;;74.47;41.78;;;;;;;10.29;52.05;102394.75;5030305;28;20391;-59
2022/01/17 09:50:18;;;;;;;73.45;40.78;;;;;;;10.42;51.92;102374.31;5030013;28;20057;-59
2022/01/17 09:52:53;;;;;;;74.07;41.83;;;;;;;10.64;51.77;102359.66;5030467;28;20095;-59
2022/01/17 09:55:23;;;;;;;65.03;38.67;;;;;;;10.84;51.39;102375.66;5029781;28;20076;-60
2022/01/17 09:58:03;;;;;;;97.40;56.20;;;;;;;11.02;51.01;102384.75;5030573;28;20041;-59
2022/01/17 10:00:34;;;;;;;54.13;35.78;;;;;;;11.21;50.71;102371.88;5030204;28;20049;-59
2022/01/17 10:03:06;;;;;;;107.82;70.47;;;;;;;11.35;50.63;102366.16;5030213;28;20053;-59
2022/01/17 10:05:34;;;;;;;65.22;44.88;;;;;;;11.53;50.31;102356.75;5030115;28;20042;-60
2022/01/17 10:08:10;;;;;;;59.58;38.65;;;;;;;11.65;50.13;102355.47;5030086;28;20050;-60
2022/01/17 10:10:37;;;;;;;;;;;;;;;11.68;50.01;102373.78;5029667;28;20061;-59
2022/01/17 10:13:10;;;;;;;45.22;31.42;;;;;;;11.58;50.35;102367.97;5030205;28;19928;-59
2022/01/17 10:15:48;;;;;;;49.65;30.67;;;;;;;11.65;50.40;102355.47;5029334;28;20052;-60
2022/01/17 10:18:26;;;;;;;46.92;31.83;;;;;;;11.82;50.24;102343.50;5029903;28;20228;-59
2022/01/17 10:20:59;;;;;;;51.30;32.35;;;;;;;12.06;49.58;102333.88;5029857;28;20050;-59
2022/01/17 10:23:45;;;;;;;;;;;;;;;12.25;49.31;102336.66;5030385;28;20509;-59
2022/01/17 10:29:06;;;;;;;43.42;31.35;;;;;;;12.62;48.68;102334.38;5029680;28;20053;-60
2022/01/17 10:34:53;;;;;;;40.75;29.67;;;;;;;12.38;49.46;102343.19;5029421;28;20060;-59
2022/01/17 10:37:11;;;;;;;45.97;33.15;;;;;;;12.85;48.60;102344.88;5029512;28;20049;-60
2022/01/17 10:40:00;;;;;;;47.65;33.33;;;;;;;12.93;48.44;102347.19;5029361;28;20478;-59
2022/01/17 10:42:41;;;;;;;47.78;34.63;;;;;;;12.96;48.29;102352.31;5029150;28;20051;-59
2022/01/17 10:45:08;;;;;;;54.55;36.88;;;;;;;13.03;48.55;102331.84;5029398;28;20067;-59
2022/01/17 10:47:39;;;;;;;45.63;33.28;;;;;;;12.85;48.58;102336.97;5029448;28;20052;-60
2022/01/17 10:50:23;;;;;;;47.22;34.28;;;;;;;12.44;49.68;102330.69;5029331;28;20543;-59
2022/01/17 10:52:52;;;;;;;65.35;42.45;;;;;;;12.14;50.17;102337.09;5029298;28;20115;-60
2022/01/17 10:55:20;;;;;;;49.90;36.15;;;;;;;11.80;50.93;102335.66;5028943;28;20543;-59
2022/01/17 10:57:50;;;;;;;67.25;47.78;;;;;;;11.41;51.56;102333.53;5029171;28;20119;-61
2022/01/17 11:00:23;;;;;;;51.78;37.00;;;;;;;11.06;52.53;102332.97;5028969;28;20521;-60
2022/01/17 11:02:52;;;;;;;57.28;39.88;;;;;;;10.82;53.05;102331.97;5029224;28;20053;-59
2022/01/17 11:05:22;;;;;;;55.30;39.00;;;;;;;10.62;53.44;102330.84;5028719;28;20054;-59
2022/01/17 11:07:52;;;;;;;58.40;38.53;;;;;;;10.53;53.57;102339.88;5028959;28;20103;-59
2022/01/17 11:10:28;;;;;;;59.40;40.83;;;;;;;10.53;53.49;102349.53;5028338;28;20139;-59
2022/01/17 11:12:56;;;;;;;;;;;;;;;11.19;51.78;102334.25;5029649;28;20548;-59
2022/01/17 11:15:25;;;;;;;54.63;38.25;;;;;;;11.49;51.14;102335.88;5028912;28;20270;-64
2022/01/17 11:17:55;;;;;;;88.93;51.85;;;;;;;11.70;50.66;102329.88;5028782;28;20129;-59
2022/01/17 11:20:25;;;;;;;119.25;63.95;;;;;;;11.74;50.61;102315.72;5028801;28;20053;-59
2022/01/17 11:22:58;;;;;;;197.50;115.68;;;;;;;11.71;50.70;102320.22;5028998;28;20049;-61
2022/01/17 11:25:31;;;;;;;100.63;64.50;;;;;;;11.68;50.88;102320.31;5028044;28;20053;-59
2022/01/17 11:28:00;;;;;;;117.82;73.63;;;;;;;11.64;51.17;102322.19;5028767;28;20045;-59
2022/01/17 11:30:28;;;;;;;198.13;113.50;;;;;;;11.61;51.24;102314.44;5028927;28;20099;-59
2022/01/17 11:32:56;;;;;;;76.15;47.90;;;;;;;11.64;51.22;102301.16;5028611;28;20046;-59
2022/01/17 11:35:24;;;;;;;81.43;49.63;;;;;;;11.58;51.45;102304.03;5028866;28;20057;-59
2022/01/17 11:37:58;;;;;;;111.90;64.25;;;;;;;11.66;51.42;102291.44;5028556;28;20057;-59
2022/01/17 11:40:32;;;;;;;98.88;56.95;;;;;;;11.68;51.30;102288.75;5028585;28;20053;-59
2022/01/17 11:43:00;;;;;;;103.65;59.85;;;;;;;11.70;51.35;102293.06;5028526;28;20497;-67
2022/01/17 11:45:27;;;;;;;85.20;54.65;;;;;;;11.79;51.19;102309.44;5028753;28;20045;-59
2022/01/17 11:47:59;;;;;;;58.33;39.63;;;;;;;11.76;51.54;102305.97;5028568;28;20115;-59